sensor_id;sensor_type;location;lat;lon;timestamp;P1;durP1;ratioP1;P2;durP2;ratioP2
26181;SDS011;13927;51.534;11.866;2024-03-17T00:01:10;5.43;;;2.30;;
26181;SDS011;13927;51.534;11.866;2024-03-17T00:03:36;5.28;;;2.85;;
26181;SDS011;13927;51.534;11.866;2024-03-17T00:06:02;4.22;;;2.42;;
26181;SDS011;13927;51.534;11.866;2024-03-17T00:08:28;5.40;;;2.38;;
26181;SDS011;13927;51.534;11.866;2024-03-17T00:10:54;3.92;;;2.65;;
26181;SDS011;13927;51.534;11.866;2024-03-17T00:13:20;4.88;;;2.95;;
26181;SDS011;13927;51.534;11.866;2024-03-17T00:15:49;5.07;;;2.63;;
26181;SDS011;13927;51.534;11.866;2024-03-17T00:18:15;5.80;;;2.42;;
26181;SDS011;13927;51.534;11.866;2024-03-17T00:20:42;5.00;;;2.75;;
26181;SDS011;13927;51.534;11.866;2024-03-17T00:23:11;4.22;;;2.40;;
26181;SDS011;13927;51.534;11.866;2024-03-17T00:25:40;4.85;;;2.55;;
26181;SDS011;13927;51.534;11.866;2024-03-17T00:28:05;8.77;;;2.85;;
26181;SDS011;13927;51.534;11.866;2024-03-17T00:30:31;6.30;;;2.58;;
26181;SDS011;13927;51.534;11.866;2024-03-17T00:32:57;5.95;;;2.58;;
26181;SDS011;13927;51.534;11.866;2024-03-17T00:35:23;4.95;;;2.00;;
26181;SDS011;13927;51.534;11.866;2024-03-17T00:37:50;4.65;;;1.85;;
26181;SDS011;13927;51.534;11.866;2024-03-17T00:40:16;6.95;;;2.35;;
26181;SDS011;13927;51.534;11.866;2024-03-17T00:42:42;5.43;;;2.50;;
26181;SDS011;13927;51.534;11.866;2024-03-17T00:45:10;6.35;;;2.95;;
26181;SDS011;13927;51.534;11.866;2024-03-17T00:47:36;5.30;;;2.65;;
26181;SDS011;13927;51.534;11.866;2024-03-17T00:50:02;6.68;;;2.40;;
26181;SDS011;13927;51.534;11.866;2024-03-17T00:52:29;5.47;;;2.17;;
26181;SDS011;13927;51.534;11.866;2024-03-17T00:54:55;3.47;;;1.83;;
26181;SDS011;13927;51.534;11.866;2024-03-17T00:57:21;4.53;;;2.10;;
26181;SDS011;13927;51.534;11.866;2024-03-17T00:59:47;4.97;;;2.22;;
26181;SDS011;13927;51.534;11.866;2024-03-17T01:02:12;7.55;;;3.15;;
26181;SDS011;13927;51.534;11.866;2024-03-17T01:04:43;5.30;;;3.08;;
26181;SDS011;13927;51.534;11.866;2024-03-17T01:07:09;6.25;;;2.97;;
26181;SDS011;13927;51.534;11.866;2024-03-17T01:09:37;6.15;;;2.95;;
26181;SDS011;13927;51.534;11.866;2024-03-17T01:12:03;7.47;;;3.40;;
26181;SDS011;13927;51.534;11.866;2024-03-17T01:14:30;6.20;;;3.58;;
26181;SDS011;13927;51.534;11.866;2024-03-17T01:16:56;6.75;;;3.17;;
26181;SDS011;13927;51.534;11.866;2024-03-17T01:19:23;5.60;;;2.78;;
26181;SDS011;13927;51.534;11.866;2024-03-17T01:21:51;4.78;;;2.50;;
26181;SDS011;13927;51.534;11.866;2024-03-17T01:24:17;5.82;;;2.60;;
26181;SDS011;13927;51.534;11.866;2024-03-17T01:26:43;6.80;;;3.30;;
26181;SDS011;13927;51.534;11.866;2024-03-17T01:29:10;4.68;;;2.60;;
26181;SDS011;13927;51.534;11.866;2024-03-17T01:31:36;6.82;;;2.75;;
26181;SDS011;13927;51.534;11.866;2024-03-17T01:34:01;10.93;;;3.50;;
26181;SDS011;13927;51.534;11.866;2024-03-17T01:36:27;4.57;;;2.72;;
26181;SDS011;13927;51.534;11.866;2024-03-17T01:38:54;4.05;;;2.50;;
26181;SDS011;13927;51.534;11.866;2024-03-17T01:41:19;7.40;;;2.67;;
26181;SDS011;13927;51.534;11.866;2024-03-17T01:43:45;3.45;;;2.25;;
26181;SDS011;13927;51.534;11.866;2024-03-17T01:46:12;5.53;;;2.58;;
26181;SDS011;13927;51.534;11.866;2024-03-17T01:48:40;4.55;;;2.22;;
26181;SDS011;13927;51.534;11.866;2024-03-17T01:51:06;4.82;;;2.35;;
26181;SDS011;13927;51.534;11.866;2024-03-17T01:53:38;6.25;;;2.33;;
26181;SDS011;13927;51.534;11.866;2024-03-17T01:56:10;6.22;;;2.35;;
26181;SDS011;13927;51.534;11.866;2024-03-17T01:58:36;3.92;;;2.28;;
26181;SDS011;13927;51.534;11.866;2024-03-17T02:01:04;6.28;;;2.10;;
26181;SDS011;13927;51.534;11.866;2024-03-17T02:03:30;5.43;;;3.03;;
26181;SDS011;13927;51.534;11.866;2024-03-17T02:05:58;4.63;;;2.30;;
26181;SDS011;13927;51.534;11.866;2024-03-17T02:08:24;6.03;;;2.53;;
26181;SDS011;13927;51.534;11.866;2024-03-17T02:10:52;3.17;;;2.00;;
26181;SDS011;13927;51.534;11.866;2024-03-17T02:13:22;3.53;;;1.80;;
26181;SDS011;13927;51.534;11.866;2024-03-17T02:15:48;5.10;;;2.10;;
26181;SDS011;13927;51.534;11.866;2024-03-17T02:18:14;6.35;;;3.00;;
26181;SDS011;13927;51.534;11.866;2024-03-17T02:20:39;4.88;;;2.63;;
26181;SDS011;13927;51.534;11.866;2024-03-17T02:23:20;4.47;;;2.35;;
26181;SDS011;13927;51.534;11.866;2024-03-17T02:25:46;6.40;;;2.47;;
26181;SDS011;13927;51.534;11.866;2024-03-17T02:28:13;5.55;;;2.42;;
26181;SDS011;13927;51.534;11.866;2024-03-17T02:30:39;3.88;;;2.13;;
26181;SDS011;13927;51.534;11.866;2024-03-17T02:33:05;5.25;;;2.33;;
26181;SDS011;13927;51.534;11.866;2024-03-17T02:35:32;8.18;;;2.45;;
26181;SDS011;13927;51.534;11.866;2024-03-17T02:37:58;5.28;;;2.22;;
26181;SDS011;13927;51.534;11.866;2024-03-17T02:40:23;5.80;;;2.63;;
26181;SDS011;13927;51.534;11.866;2024-03-17T02:42:49;6.78;;;3.03;;
26181;SDS011;13927;51.534;11.866;2024-03-17T02:45:18;4.78;;;2.03;;
26181;SDS011;13927;51.534;11.866;2024-03-17T02:47:46;4.90;;;2.53;;
26181;SDS011;13927;51.534;11.866;2024-03-17T02:50:11;4.07;;;2.20;;
26181;SDS011;13927;51.534;11.866;2024-03-17T02:52:38;5.25;;;2.42;;
26181;SDS011;13927;51.534;11.866;2024-03-17T02:55:04;4.60;;;2.38;;
26181;SDS011;13927;51.534;11.866;2024-03-17T02:57:31;7.78;;;2.88;;
26181;SDS011;13927;51.534;11.866;2024-03-17T02:59:57;5.25;;;2.03;;
26181;SDS011;13927;51.534;11.866;2024-03-17T03:02:31;4.40;;;2.55;;
26181;SDS011;13927;51.534;11.866;2024-03-17T03:04:56;5.40;;;3.00;;
26181;SDS011;13927;51.534;11.866;2024-03-17T03:07:22;8.75;;;3.83;;
26181;SDS011;13927;51.534;11.866;2024-03-17T03:09:48;5.43;;;3.10;;
26181;SDS011;13927;51.534;11.866;2024-03-17T03:12:15;4.20;;;2.65;;
26181;SDS011;13927;51.534;11.866;2024-03-17T03:14:40;7.20;;;3.10;;
26181;SDS011;13927;51.534;11.866;2024-03-17T03:17:06;9.18;;;3.20;;
26181;SDS011;13927;51.534;11.866;2024-03-17T03:19:32;4.75;;;2.97;;
26181;SDS011;13927;51.534;11.866;2024-03-17T03:21:58;5.97;;;3.42;;
26181;SDS011;13927;51.534;11.866;2024-03-17T03:24:24;3.35;;;2.30;;
26181;SDS011;13927;51.534;11.866;2024-03-17T03:26:50;3.90;;;2.33;;
26181;SDS011;13927;51.534;11.866;2024-03-17T03:29:15;5.22;;;2.20;;
26181;SDS011;13927;51.534;11.866;2024-03-17T03:31:41;4.57;;;2.10;;
26181;SDS011;13927;51.534;11.866;2024-03-17T03:34:07;3.58;;;1.95;;
26181;SDS011;13927;51.534;11.866;2024-03-17T03:36:34;5.28;;;2.55;;
26181;SDS011;13927;51.534;11.866;2024-03-17T03:39:03;4.20;;;2.60;;
26181;SDS011;13927;51.534;11.866;2024-03-17T03:41:31;3.55;;;2.03;;
26181;SDS011;13927;51.534;11.866;2024-03-17T03:44:03;4.88;;;2.35;;
26181;SDS011;13927;51.534;11.866;2024-03-17T03:46:29;4.63;;;2.58;;
26181;SDS011;13927;51.534;11.866;2024-03-17T03:48:55;3.47;;;1.85;;
26181;SDS011;13927;51.534;11.866;2024-03-17T03:51:22;3.55;;;2.20;;
26181;SDS011;13927;51.534;11.866;2024-03-17T03:53:48;5.10;;;2.70;;
26181;SDS011;13927;51.534;11.866;2024-03-17T03:56:16;8.32;;;2.30;;
26181;SDS011;13927;51.534;11.866;2024-03-17T03:58:41;4.38;;;2.00;;
26181;SDS011;13927;51.534;11.866;2024-03-17T04:01:09;8.27;;;2.50;;
26181;SDS011;13927;51.534;11.866;2024-03-17T04:03:46;6.47;;;2.47;;
26181;SDS011;13927;51.534;11.866;2024-03-17T04:06:13;3.85;;;2.28;;
26181;SDS011;13927;51.534;11.866;2024-03-17T04:08:40;4.47;;;2.30;;
26181;SDS011;13927;51.534;11.866;2024-03-17T04:11:06;5.25;;;2.10;;
26181;SDS011;13927;51.534;11.866;2024-03-17T04:13:34;3.28;;;2.35;;
26181;SDS011;13927;51.534;11.866;2024-03-17T04:16:06;3.40;;;2.15;;
26181;SDS011;13927;51.534;11.866;2024-03-17T04:18:33;4.97;;;2.33;;
26181;SDS011;13927;51.534;11.866;2024-03-17T04:21:03;4.38;;;2.20;;
26181;SDS011;13927;51.534;11.866;2024-03-17T04:23:32;5.57;;;2.38;;
26181;SDS011;13927;51.534;11.866;2024-03-17T04:25:58;5.25;;;2.20;;
26181;SDS011;13927;51.534;11.866;2024-03-17T04:28:24;4.70;;;2.05;;
26181;SDS011;13927;51.534;11.866;2024-03-17T04:30:50;5.70;;;2.22;;
26181;SDS011;13927;51.534;11.866;2024-03-17T04:33:15;3.92;;;2.28;;
26181;SDS011;13927;51.534;11.866;2024-03-17T04:35:41;5.22;;;2.10;;
26181;SDS011;13927;51.534;11.866;2024-03-17T04:38:07;3.85;;;2.20;;
26181;SDS011;13927;51.534;11.866;2024-03-17T04:40:34;3.55;;;2.15;;
26181;SDS011;13927;51.534;11.866;2024-03-17T04:43:05;5.53;;;2.78;;
26181;SDS011;13927;51.534;11.866;2024-03-17T04:45:31;4.90;;;2.30;;
26181;SDS011;13927;51.534;11.866;2024-03-17T04:47:57;5.05;;;2.42;;
26181;SDS011;13927;51.534;11.866;2024-03-17T04:50:23;3.53;;;1.98;;
26181;SDS011;13927;51.534;11.866;2024-03-17T04:52:49;4.68;;;2.15;;
26181;SDS011;13927;51.534;11.866;2024-03-17T04:55:15;5.10;;;2.40;;
26181;SDS011;13927;51.534;11.866;2024-03-17T04:57:43;5.45;;;2.50;;
26181;SDS011;13927;51.534;11.866;2024-03-17T05:00:13;3.15;;;1.90;;
26181;SDS011;13927;51.534;11.866;2024-03-17T05:02:39;5.22;;;2.75;;
26181;SDS011;13927;51.534;11.866;2024-03-17T05:05:05;4.22;;;2.33;;
26181;SDS011;13927;51.534;11.866;2024-03-17T05:07:34;4.63;;;2.88;;
26181;SDS011;13927;51.534;11.866;2024-03-17T05:10:00;3.85;;;2.30;;
26181;SDS011;13927;51.534;11.866;2024-03-17T05:12:26;7.63;;;2.45;;
26181;SDS011;13927;51.534;11.866;2024-03-17T05:14:53;3.63;;;2.28;;
26181;SDS011;13927;51.534;11.866;2024-03-17T05:17:20;4.50;;;2.28;;
26181;SDS011;13927;51.534;11.866;2024-03-17T05:19:45;5.57;;;2.42;;
26181;SDS011;13927;51.534;11.866;2024-03-17T05:22:11;4.55;;;2.55;;
26181;SDS011;13927;51.534;11.866;2024-03-17T05:24:37;9.73;;;2.55;;
26181;SDS011;13927;51.534;11.866;2024-03-17T05:27:03;5.28;;;2.50;;
26181;SDS011;13927;51.534;11.866;2024-03-17T05:29:29;6.60;;;2.08;;
26181;SDS011;13927;51.534;11.866;2024-03-17T05:31:54;6.68;;;2.47;;
26181;SDS011;13927;51.534;11.866;2024-03-17T05:34:21;6.72;;;2.72;;
26181;SDS011;13927;51.534;11.866;2024-03-17T05:36:50;6.13;;;2.45;;
26181;SDS011;13927;51.534;11.866;2024-03-17T05:39:16;5.25;;;2.33;;
26181;SDS011;13927;51.534;11.866;2024-03-17T05:41:42;5.78;;;3.10;;
26181;SDS011;13927;51.534;11.866;2024-03-17T05:44:09;5.18;;;2.80;;
26181;SDS011;13927;51.534;11.866;2024-03-17T05:46:35;8.95;;;3.15;;
26181;SDS011;13927;51.534;11.866;2024-03-17T05:49:01;6.53;;;2.92;;
26181;SDS011;13927;51.534;11.866;2024-03-17T05:51:28;2.92;;;2.00;;
26181;SDS011;13927;51.534;11.866;2024-03-17T05:53:54;5.57;;;2.33;;
26181;SDS011;13927;51.534;11.866;2024-03-17T05:56:20;4.63;;;2.83;;
26181;SDS011;13927;51.534;11.866;2024-03-17T05:58:48;5.10;;;3.08;;
26181;SDS011;13927;51.534;11.866;2024-03-17T06:01:14;4.90;;;2.80;;
26181;SDS011;13927;51.534;11.866;2024-03-17T06:03:39;5.43;;;3.40;;
26181;SDS011;13927;51.534;11.866;2024-03-17T06:06:06;8.00;;;3.50;;
26181;SDS011;13927;51.534;11.866;2024-03-17T06:08:37;7.22;;;3.50;;
26181;SDS011;13927;51.534;11.866;2024-03-17T06:11:06;8.52;;;4.30;;
26181;SDS011;13927;51.534;11.866;2024-03-17T06:13:31;8.73;;;4.68;;
26181;SDS011;13927;51.534;11.866;2024-03-17T06:15:59;12.38;;;5.82;;
26181;SDS011;13927;51.534;11.866;2024-03-17T06:18:27;11.18;;;5.57;;
26181;SDS011;13927;51.534;11.866;2024-03-17T06:20:53;9.05;;;5.47;;
26181;SDS011;13927;51.534;11.866;2024-03-17T06:23:19;14.18;;;5.47;;
26181;SDS011;13927;51.534;11.866;2024-03-17T06:25:45;8.55;;;4.22;;
26181;SDS011;13927;51.534;11.866;2024-03-17T06:28:14;7.25;;;3.60;;
26181;SDS011;13927;51.534;11.866;2024-03-17T06:30:45;8.43;;;4.18;;
26181;SDS011;13927;51.534;11.866;2024-03-17T06:33:19;7.53;;;3.40;;
26181;SDS011;13927;51.534;11.866;2024-03-17T06:35:46;5.50;;;3.28;;
26181;SDS011;13927;51.534;11.866;2024-03-17T06:38:12;5.15;;;3.35;;
26181;SDS011;13927;51.534;11.866;2024-03-17T06:40:41;6.30;;;3.50;;
26181;SDS011;13927;51.534;11.866;2024-03-17T06:45:38;6.57;;;3.42;;
26181;SDS011;13927;51.534;11.866;2024-03-17T06:48:05;12.85;;;4.00;;
26181;SDS011;13927;51.534;11.866;2024-03-17T06:50:31;7.95;;;4.35;;
26181;SDS011;13927;51.534;11.866;2024-03-17T06:53:03;8.23;;;4.18;;
26181;SDS011;13927;51.534;11.866;2024-03-17T06:55:29;9.35;;;4.40;;
26181;SDS011;13927;51.534;11.866;2024-03-17T06:57:54;12.73;;;5.32;;
26181;SDS011;13927;51.534;11.866;2024-03-17T07:00:20;8.25;;;4.43;;
26181;SDS011;13927;51.534;11.866;2024-03-17T07:02:50;7.38;;;4.05;;
26181;SDS011;13927;51.534;11.866;2024-03-17T07:05:16;7.10;;;3.70;;
26181;SDS011;13927;51.534;11.866;2024-03-17T07:07:44;8.80;;;4.00;;
26181;SDS011;13927;51.534;11.866;2024-03-17T07:10:10;6.78;;;3.92;;
26181;SDS011;13927;51.534;11.866;2024-03-17T07:12:40;6.90;;;4.35;;
26181;SDS011;13927;51.534;11.866;2024-03-17T07:15:07;6.43;;;3.60;;
26181;SDS011;13927;51.534;11.866;2024-03-17T07:17:36;6.78;;;4.20;;
26181;SDS011;13927;51.534;11.866;2024-03-17T07:20:02;6.55;;;4.25;;
26181;SDS011;13927;51.534;11.866;2024-03-17T07:22:28;6.90;;;3.90;;
26181;SDS011;13927;51.534;11.866;2024-03-17T07:24:54;6.85;;;3.78;;
26181;SDS011;13927;51.534;11.866;2024-03-17T07:27:25;10.60;;;3.83;;
26181;SDS011;13927;51.534;11.866;2024-03-17T07:29:51;7.28;;;3.85;;
26181;SDS011;13927;51.534;11.866;2024-03-17T07:32:17;5.78;;;3.38;;
26181;SDS011;13927;51.534;11.866;2024-03-17T07:34:43;6.68;;;3.53;;
26181;SDS011;13927;51.534;11.866;2024-03-17T07:37:08;7.18;;;3.28;;
26181;SDS011;13927;51.534;11.866;2024-03-17T07:39:34;8.00;;;3.53;;
26181;SDS011;13927;51.534;11.866;2024-03-17T07:42:00;4.43;;;3.15;;
26181;SDS011;13927;51.534;11.866;2024-03-17T07:44:27;6.38;;;3.20;;
26181;SDS011;13927;51.534;11.866;2024-03-17T07:46:58;7.00;;;3.13;;
26181;SDS011;13927;51.534;11.866;2024-03-17T07:49:23;7.10;;;3.30;;
26181;SDS011;13927;51.534;11.866;2024-03-17T07:51:49;8.15;;;3.67;;
26181;SDS011;13927;51.534;11.866;2024-03-17T07:54:15;5.30;;;3.17;;
26181;SDS011;13927;51.534;11.866;2024-03-17T07:56:40;5.90;;;3.55;;
26181;SDS011;13927;51.534;11.866;2024-03-17T07:59:06;7.93;;;3.15;;
26181;SDS011;13927;51.534;11.866;2024-03-17T08:01:39;8.00;;;3.45;;
26181;SDS011;13927;51.534;11.866;2024-03-17T08:04:05;9.43;;;2.90;;
26181;SDS011;13927;51.534;11.866;2024-03-17T08:06:31;5.55;;;2.75;;
26181;SDS011;13927;51.534;11.866;2024-03-17T08:08:57;5.10;;;2.80;;
26181;SDS011;13927;51.534;11.866;2024-03-17T08:11:23;6.43;;;3.38;;
26181;SDS011;13927;51.534;11.866;2024-03-17T08:13:50;6.43;;;3.10;;
26181;SDS011;13927;51.534;11.866;2024-03-17T08:16:15;6.88;;;3.58;;
26181;SDS011;13927;51.534;11.866;2024-03-17T08:18:42;8.40;;;3.20;;
26181;SDS011;13927;51.534;11.866;2024-03-17T08:21:08;8.60;;;3.05;;
26181;SDS011;13927;51.534;11.866;2024-03-17T08:23:34;6.90;;;3.25;;
26181;SDS011;13927;51.534;11.866;2024-03-17T08:26:06;7.30;;;3.28;;
26181;SDS011;13927;51.534;11.866;2024-03-17T08:28:32;7.15;;;3.20;;
26181;SDS011;13927;51.534;11.866;2024-03-17T08:30:58;4.93;;;2.70;;
26181;SDS011;13927;51.534;11.866;2024-03-17T08:33:26;5.93;;;2.58;;
26181;SDS011;13927;51.534;11.866;2024-03-17T08:35:57;9.05;;;3.03;;
26181;SDS011;13927;51.534;11.866;2024-03-17T08:38:29;10.85;;;2.80;;
26181;SDS011;13927;51.534;11.866;2024-03-17T08:40:58;6.22;;;2.20;;
26181;SDS011;13927;51.534;11.866;2024-03-17T08:43:29;7.25;;;2.22;;
26181;SDS011;13927;51.534;11.866;2024-03-17T08:45:56;7.25;;;2.58;;
26181;SDS011;13927;51.534;11.866;2024-03-17T08:48:32;6.68;;;2.30;;
26181;SDS011;13927;51.534;11.866;2024-03-17T08:51:00;7.65;;;2.42;;
26181;SDS011;13927;51.534;11.866;2024-03-17T08:53:27;7.53;;;2.47;;
26181;SDS011;13927;51.534;11.866;2024-03-17T08:55:55;8.35;;;2.45;;
26181;SDS011;13927;51.534;11.866;2024-03-17T08:58:21;7.95;;;2.13;;
26181;SDS011;13927;51.534;11.866;2024-03-17T09:00:48;7.18;;;1.90;;
26181;SDS011;13927;51.534;11.866;2024-03-17T09:03:14;11.05;;;2.28;;
26181;SDS011;13927;51.534;11.866;2024-03-17T09:05:41;11.32;;;2.50;;
26181;SDS011;13927;51.534;11.866;2024-03-17T09:08:18;7.10;;;2.60;;
26181;SDS011;13927;51.534;11.866;2024-03-17T09:10:47;9.57;;;2.53;;
26181;SDS011;13927;51.534;11.866;2024-03-17T09:13:15;8.70;;;2.70;;
26181;SDS011;13927;51.534;11.866;2024-03-17T09:15:58;7.63;;;2.42;;
26181;SDS011;13927;51.534;11.866;2024-03-17T09:18:28;4.05;;;1.73;;
26181;SDS011;13927;51.534;11.866;2024-03-17T09:20:56;7.35;;;2.25;;
26181;SDS011;13927;51.534;11.866;2024-03-17T09:23:28;8.67;;;2.67;;
26181;SDS011;13927;51.534;11.866;2024-03-17T09:25:59;7.70;;;2.25;;
26181;SDS011;13927;51.534;11.866;2024-03-17T09:31:03;4.90;;;2.05;;
26181;SDS011;13927;51.534;11.866;2024-03-17T09:33:33;8.60;;;1.80;;
26181;SDS011;13927;51.534;11.866;2024-03-17T09:36:07;10.40;;;2.90;;
26181;SDS011;13927;51.534;11.866;2024-03-17T09:38:40;4.07;;;1.83;;
26181;SDS011;13927;51.534;11.866;2024-03-17T09:41:07;7.97;;;3.03;;
26181;SDS011;13927;51.534;11.866;2024-03-17T09:43:56;6.40;;;2.63;;
26181;SDS011;13927;51.534;11.866;2024-03-17T09:46:33;10.43;;;2.92;;
26181;SDS011;13927;51.534;11.866;2024-03-17T09:48:59;8.48;;;2.25;;
26181;SDS011;13927;51.534;11.866;2024-03-17T09:51:25;9.32;;;2.67;;
26181;SDS011;13927;51.534;11.866;2024-03-17T09:53:51;8.10;;;2.63;;
26181;SDS011;13927;51.534;11.866;2024-03-17T09:56:18;7.70;;;2.13;;
26181;SDS011;13927;51.534;11.866;2024-03-17T09:58:49;9.02;;;2.97;;
26181;SDS011;13927;51.534;11.866;2024-03-17T10:01:16;11.45;;;3.25;;
26181;SDS011;13927;51.534;11.866;2024-03-17T10:06:16;6.35;;;2.55;;
26181;SDS011;13927;51.534;11.866;2024-03-17T10:08:54;6.72;;;2.58;;
26181;SDS011;13927;51.534;11.866;2024-03-17T10:11:24;8.38;;;2.55;;
26181;SDS011;13927;51.534;11.866;2024-03-17T10:13:59;5.72;;;2.85;;
26181;SDS011;13927;51.534;11.866;2024-03-17T10:16:36;8.75;;;3.72;;
26181;SDS011;13927;51.534;11.866;2024-03-17T10:21:37;5.75;;;2.83;;
26181;SDS011;13927;51.534;11.866;2024-03-17T10:24:08;4.15;;;2.35;;
26181;SDS011;13927;51.534;11.866;2024-03-17T10:26:49;5.70;;;2.83;;
26181;SDS011;13927;51.534;11.866;2024-03-17T10:29:28;6.35;;;2.90;;
26181;SDS011;13927;51.534;11.866;2024-03-17T10:34:39;5.50;;;2.50;;
26181;SDS011;13927;51.534;11.866;2024-03-17T10:37:07;5.60;;;2.80;;
26181;SDS011;13927;51.534;11.866;2024-03-17T10:39:42;6.90;;;3.42;;
26181;SDS011;13927;51.534;11.866;2024-03-17T10:42:09;9.25;;;3.38;;
26181;SDS011;13927;51.534;11.866;2024-03-17T10:44:42;7.70;;;2.67;;
26181;SDS011;13927;51.534;11.866;2024-03-17T10:47:22;4.15;;;2.55;;
26181;SDS011;13927;51.534;11.866;2024-03-17T10:49:50;6.10;;;2.53;;
26181;SDS011;13927;51.534;11.866;2024-03-17T10:52:20;5.82;;;2.42;;
26181;SDS011;13927;51.534;11.866;2024-03-17T10:54:51;6.25;;;2.97;;
26181;SDS011;13927;51.534;11.866;2024-03-17T10:59:59;5.53;;;2.53;;
26181;SDS011;13927;51.534;11.866;2024-03-17T11:02:29;7.35;;;2.45;;
26181;SDS011;13927;51.534;11.866;2024-03-17T11:05:01;5.22;;;2.70;;
26181;SDS011;13927;51.534;11.866;2024-03-17T11:07:54;6.68;;;3.15;;
26181;SDS011;13927;51.534;11.866;2024-03-17T11:10:30;6.45;;;2.40;;
26181;SDS011;13927;51.534;11.866;2024-03-17T11:13:02;9.52;;;3.88;;
26181;SDS011;13927;51.534;11.866;2024-03-17T11:20:42;6.50;;;2.95;;
26181;SDS011;13927;51.534;11.866;2024-03-17T11:23:27;9.17;;;4.03;;
26181;SDS011;13927;51.534;11.866;2024-03-17T11:25:56;6.35;;;3.00;;
26181;SDS011;13927;51.534;11.866;2024-03-17T11:31:32;5.95;;;2.80;;
26181;SDS011;13927;51.534;11.866;2024-03-17T11:34:37;6.85;;;3.00;;
26181;SDS011;13927;51.534;11.866;2024-03-17T11:37:05;6.18;;;2.90;;
26181;SDS011;13927;51.534;11.866;2024-03-17T11:39:50;7.88;;;2.95;;
26181;SDS011;13927;51.534;11.866;2024-03-17T11:42:21;7.07;;;3.53;;
26181;SDS011;13927;51.534;11.866;2024-03-17T11:44:55;8.32;;;3.03;;
26181;SDS011;13927;51.534;11.866;2024-03-17T11:47:38;4.32;;;2.40;;
26181;SDS011;13927;51.534;11.866;2024-03-17T11:50:13;6.22;;;2.67;;
26181;SDS011;13927;51.534;11.866;2024-03-17T11:52:40;3.58;;;1.90;;
26181;SDS011;13927;51.534;11.866;2024-03-17T11:55:14;5.00;;;2.45;;
26181;SDS011;13927;51.534;11.866;2024-03-17T11:57:42;4.43;;;2.38;;
26181;SDS011;13927;51.534;11.866;2024-03-17T12:00:20;5.28;;;2.42;;
26181;SDS011;13927;51.534;11.866;2024-03-17T12:02:49;3.85;;;2.45;;
26181;SDS011;13927;51.534;11.866;2024-03-17T12:05:15;5.63;;;2.50;;
26181;SDS011;13927;51.534;11.866;2024-03-17T12:07:44;8.25;;;2.63;;
26181;SDS011;13927;51.534;11.866;2024-03-17T12:10:10;6.60;;;2.60;;
26181;SDS011;13927;51.534;11.866;2024-03-17T12:12:38;3.38;;;2.22;;
26181;SDS011;13927;51.534;11.866;2024-03-17T12:15:11;7.35;;;2.60;;
26181;SDS011;13927;51.534;11.866;2024-03-17T12:17:43;3.70;;;2.17;;
26181;SDS011;13927;51.534;11.866;2024-03-17T12:20:16;5.88;;;2.45;;
26181;SDS011;13927;51.534;11.866;2024-03-17T12:22:45;5.80;;;2.97;;
26181;SDS011;13927;51.534;11.866;2024-03-17T12:25:19;5.32;;;2.67;;
26181;SDS011;13927;51.534;11.866;2024-03-17T12:27:46;6.90;;;2.50;;
26181;SDS011;13927;51.534;11.866;2024-03-17T12:30:13;5.80;;;2.65;;
26181;SDS011;13927;51.534;11.866;2024-03-17T12:32:45;4.72;;;2.45;;
26181;SDS011;13927;51.534;11.866;2024-03-17T12:35:12;6.05;;;3.05;;
26181;SDS011;13927;51.534;11.866;2024-03-17T12:37:43;4.72;;;2.78;;
26181;SDS011;13927;51.534;11.866;2024-03-17T12:40:20;6.32;;;2.65;;
26181;SDS011;13927;51.534;11.866;2024-03-17T12:42:48;4.78;;;2.95;;
26181;SDS011;13927;51.534;11.866;2024-03-17T12:45:18;4.78;;;2.47;;
26181;SDS011;13927;51.534;11.866;2024-03-17T12:47:49;4.68;;;2.72;;
26181;SDS011;13927;51.534;11.866;2024-03-17T12:50:16;5.15;;;2.53;;
26181;SDS011;13927;51.534;11.866;2024-03-17T12:52:51;4.53;;;2.50;;
26181;SDS011;13927;51.534;11.866;2024-03-17T12:55:22;5.75;;;3.05;;
26181;SDS011;13927;51.534;11.866;2024-03-17T12:58:08;6.93;;;2.40;;
26181;SDS011;13927;51.534;11.866;2024-03-17T13:01:00;4.55;;;2.35;;
26181;SDS011;13927;51.534;11.866;2024-03-17T13:03:32;6.00;;;2.92;;
26181;SDS011;13927;51.534;11.866;2024-03-17T13:06:03;4.15;;;2.13;;
26181;SDS011;13927;51.534;11.866;2024-03-17T13:08:35;5.00;;;2.55;;
26181;SDS011;13927;51.534;11.866;2024-03-17T13:11:01;4.60;;;2.28;;
26181;SDS011;13927;51.534;11.866;2024-03-17T13:13:30;7.03;;;2.28;;
26181;SDS011;13927;51.534;11.866;2024-03-17T13:15:56;5.72;;;2.10;;
26181;SDS011;13927;51.534;11.866;2024-03-17T13:18:23;3.85;;;2.63;;
26181;SDS011;13927;51.534;11.866;2024-03-17T13:20:49;6.95;;;2.63;;
26181;SDS011;13927;51.534;11.866;2024-03-17T13:23:15;4.45;;;2.50;;
26181;SDS011;13927;51.534;11.866;2024-03-17T13:25:44;3.97;;;2.42;;
26181;SDS011;13927;51.534;11.866;2024-03-17T13:28:11;7.60;;;2.50;;
26181;SDS011;13927;51.534;11.866;2024-03-17T13:30:36;6.70;;;3.83;;
26181;SDS011;13927;51.534;11.866;2024-03-17T13:33:03;8.63;;;3.58;;
26181;SDS011;13927;51.534;11.866;2024-03-17T13:35:36;7.25;;;2.58;;
26181;SDS011;13927;51.534;11.866;2024-03-17T13:38:04;6.20;;;3.15;;
26181;SDS011;13927;51.534;11.866;2024-03-17T13:40:32;3.47;;;2.25;;
26181;SDS011;13927;51.534;11.866;2024-03-17T13:43:00;6.95;;;2.95;;
26181;SDS011;13927;51.534;11.866;2024-03-17T13:45:27;7.65;;;2.58;;
26181;SDS011;13927;51.534;11.866;2024-03-17T13:47:56;4.70;;;2.58;;
26181;SDS011;13927;51.534;11.866;2024-03-17T13:50:28;4.70;;;2.85;;
26181;SDS011;13927;51.534;11.866;2024-03-17T13:52:56;3.80;;;2.17;;
26181;SDS011;13927;51.534;11.866;2024-03-17T13:55:23;3.33;;;2.20;;
26181;SDS011;13927;51.534;11.866;2024-03-17T13:57:54;3.95;;;2.22;;
26181;SDS011;13927;51.534;11.866;2024-03-17T14:00:26;3.50;;;2.17;;
26181;SDS011;13927;51.534;11.866;2024-03-17T14:02:53;6.28;;;2.20;;
26181;SDS011;13927;51.534;11.866;2024-03-17T14:05:24;4.78;;;2.50;;
26181;SDS011;13927;51.534;11.866;2024-03-17T14:07:51;4.75;;;2.47;;
26181;SDS011;13927;51.534;11.866;2024-03-17T14:10:23;5.30;;;2.20;;
26181;SDS011;13927;51.534;11.866;2024-03-17T14:12:50;5.25;;;2.40;;
26181;SDS011;13927;51.534;11.866;2024-03-17T14:15:21;6.18;;;2.40;;
26181;SDS011;13927;51.534;11.866;2024-03-17T14:17:50;3.58;;;2.35;;
26181;SDS011;13927;51.534;11.866;2024-03-17T14:20:15;6.93;;;2.38;;
26181;SDS011;13927;51.534;11.866;2024-03-17T14:22:43;4.78;;;2.53;;
26181;SDS011;13927;51.534;11.866;2024-03-17T14:25:16;4.32;;;2.20;;
26181;SDS011;13927;51.534;11.866;2024-03-17T14:27:44;4.05;;;2.30;;
26181;SDS011;13927;51.534;11.866;2024-03-17T14:30:10;3.50;;;2.38;;
26181;SDS011;13927;51.534;11.866;2024-03-17T14:32:42;3.75;;;2.15;;
26181;SDS011;13927;51.534;11.866;2024-03-17T14:35:12;4.60;;;2.25;;
26181;SDS011;13927;51.534;11.866;2024-03-17T14:37:44;5.53;;;2.50;;
26181;SDS011;13927;51.534;11.866;2024-03-17T14:40:19;5.40;;;2.80;;
26181;SDS011;13927;51.534;11.866;2024-03-17T14:42:48;4.00;;;2.33;;
26181;SDS011;13927;51.534;11.866;2024-03-17T14:45:17;3.80;;;2.47;;
26181;SDS011;13927;51.534;11.866;2024-03-17T14:47:44;6.70;;;2.58;;
26181;SDS011;13927;51.534;11.866;2024-03-17T14:50:10;2.80;;;2.10;;
26181;SDS011;13927;51.534;11.866;2024-03-17T14:52:37;4.88;;;2.38;;
26181;SDS011;13927;51.534;11.866;2024-03-17T14:55:05;4.90;;;2.45;;
26181;SDS011;13927;51.534;11.866;2024-03-17T14:57:32;4.13;;;2.33;;
26181;SDS011;13927;51.534;11.866;2024-03-17T14:59:58;5.38;;;2.72;;
26181;SDS011;13927;51.534;11.866;2024-03-17T15:02:23;5.93;;;2.47;;
26181;SDS011;13927;51.534;11.866;2024-03-17T15:04:51;3.30;;;2.28;;